<?xml version="1.0" encoding="UTF-8"?><gpx creator="Wikiloc - https://www.wikiloc.com" version="1.1" xmlns="http://www.topografix.com/GPX/1/1" xmlns:xsi="http://www.w3.org/2001/XMLSchema-instance" xsi:schemaLocation="http://www.topografix.com/GPX/1/1 http://www.topografix.com/GPX/1/1/gpx.xsd"><metadata><name>Wikiloc - SENDA GEOLÓGICA DEL PONTÓN DE LA OLIVA A LAS CÁRCAVAS DE MINGO NEGRO (Valdepeñas de la Sierra)</name><author><name>Parque Natural Sierra Norte de Guadalajara</name><link href="https://www.wikiloc.com/wikiloc/user.do?id=16979557"><text>Parque Natural Sierra Norte de Guadalajara on Wikiloc</text></link></author><link href="https://www.wikiloc.com/hiking-trails/senda-geologica-del-ponton-de-la-oliva-a-las-carcavas-de-mingo-negro-valdepenas-de-la-sierra-209992944"><text>SENDA GEOLÓGICA DEL PONTÓN DE LA OLIVA A LAS CÁRCAVAS DE MINGO NEGRO (Valdepeñas de la Sierra) on Wikiloc</text></link><time>2025-04-21T10:26:28.239Z</time></metadata><wpt lat="40.883995" lon="-3.436041"><ele>755.0</ele><time>2025-04-21T10:23:17Z</time><name>Desvío de la pista del GR 10 y senda geológica</name><cmt></cmt><desc></desc></wpt><wpt lat="40.884485" lon="-3.435154"><ele>758.4</ele><time>2025-04-21T10:23:42Z</time><name>Desvío de la senda geológica y el GR 10</name><cmt></cmt><desc></desc></wpt><wpt lat="40.888205" lon="-3.423225"><ele>948.3</ele><time>2025-04-21T10:24:29Z</time><name>Mirador 1 de las cárcavas</name><cmt></cmt><desc></desc></wpt><wpt lat="40.888273" lon="-3.421789"><ele>960.1</ele><time>2025-04-21T10:24:52Z</time><name>Mirador 2 de las cárcavas. Panel informativo (parada 2 de la...</name><cmt></cmt><desc></desc></wpt><wpt lat="40.882804" lon="-3.441244"><ele>705.6</ele><time>2025-04-21T10:22:42Z</time><name>Panel de inicio de la Geo-ruta 6 del Parque Natural Sierra N...</name><cmt></cmt><desc></desc></wpt><wpt lat="40.887879" lon="-3.423472"><ele>938.1</ele><time>2025-04-21T10:24:06Z</time><name>Peligro de caída: no aproximarse a los cortados</name><cmt></cmt><desc></desc></wpt><trk><name>SENDA GEOLÓGICA DEL PONTÓN DE LA OLIVA A LAS CÁRCAVAS DE MIN...</name><cmt></cmt><desc></desc><trkseg><trkpt lat="40.882819" lon="-3.441284"><ele>704.958</ele><time>2025-09-28T16:35:20.931102349Z</time></trkpt><trkpt lat="40.882797" lon="-3.441230"><ele>705.752</ele><time>2025-09-28T16:36:00.931106557Z</time></trkpt><trkpt lat="40.882664" lon="-3.441058"><ele>706.717</ele><time>2025-09-28T16:36:40.931109823Z</time></trkpt><trkpt lat="40.882626" lon="-3.440944"><ele>707.709</ele><time>2025-09-28T16:37:20.931113039Z</time></trkpt><trkpt lat="40.882546" lon="-3.440741"><ele>709.147</ele><time>2025-09-28T16:38:00.931116115Z</time></trkpt><trkpt lat="40.882457" lon="-3.440595"><ele>710.095</ele><time>2025-09-28T16:38:40.931118750Z</time></trkpt><trkpt lat="40.882383" lon="-3.440470"><ele>711.494</ele><time>2025-09-28T16:39:20.931121405Z</time></trkpt><trkpt lat="40.882315" lon="-3.440385"><ele>711.724</ele><time>2025-09-28T16:40:00.931123860Z</time></trkpt><trkpt lat="40.882266" lon="-3.440314"><ele>711.644</ele><time>2025-09-28T16:40:40.931126304Z</time></trkpt><trkpt lat="40.882207" lon="-3.440231"><ele>711.267</ele><time>2025-09-28T16:41:20.931128699Z</time></trkpt><trkpt lat="40.882195" lon="-3.440189"><ele>711.344</ele><time>2025-09-28T16:42:00.931131103Z</time></trkpt><trkpt lat="40.882186" lon="-3.440162"><ele>711.469</ele><time>2025-09-28T16:42:40.931133498Z</time></trkpt><trkpt lat="40.882219" lon="-3.440009"><ele>712.979</ele><time>2025-09-28T16:43:20.934317133Z</time></trkpt><trkpt lat="40.882291" lon="-3.439835"><ele>717.392</ele><time>2025-09-28T16:44:00.934326320Z</time></trkpt><trkpt lat="40.882315" lon="-3.439767"><ele>718.973</ele><time>2025-09-28T16:44:40.934329777Z</time></trkpt><trkpt lat="40.882364" lon="-3.439681"><ele>721.220</ele><time>2025-09-28T16:45:20.934332833Z</time></trkpt><trkpt lat="40.882434" lon="-3.439583"><ele>723.909</ele><time>2025-09-28T16:46:00.934335738Z</time></trkpt><trkpt lat="40.882511" lon="-3.439412"><ele>726.211</ele><time>2025-09-28T16:46:40.934338463Z</time></trkpt><trkpt lat="40.882566" lon="-3.439315"><ele>727.459</ele><time>2025-09-28T16:47:20.934341158Z</time></trkpt><trkpt lat="40.882686" lon="-3.439065"><ele>729.748</ele><time>2025-09-28T16:48:00.934343773Z</time></trkpt><trkpt lat="40.882731" lon="-3.438814"><ele>730.028</ele><time>2025-09-28T16:48:40.934346458Z</time></trkpt><trkpt lat="40.882778" lon="-3.438552"><ele>730.878</ele><time>2025-09-28T16:49:20.934349163Z</time></trkpt><trkpt lat="40.882901" lon="-3.438293"><ele>734.381</ele><time>2025-09-28T16:50:00.934351788Z</time></trkpt><trkpt lat="40.883047" lon="-3.438059"><ele>737.888</ele><time>2025-09-28T16:50:40.934354513Z</time></trkpt><trkpt lat="40.883188" lon="-3.437833"><ele>740.253</ele><time>2025-09-28T16:51:20.934357088Z</time></trkpt><trkpt lat="40.883329" lon="-3.437528"><ele>741.223</ele><time>2025-09-28T16:52:00.934359753Z</time></trkpt><trkpt lat="40.883409" lon="-3.437440"><ele>743.076</ele><time>2025-09-28T16:52:40.934362508Z</time></trkpt><trkpt lat="40.883561" lon="-3.437231"><ele>746.490</ele><time>2025-09-28T16:53:20.934365303Z</time></trkpt><trkpt lat="40.883643" lon="-3.437093"><ele>748.019</ele><time>2025-09-28T16:54:00.934368068Z</time></trkpt><trkpt lat="40.883729" lon="-3.436868"><ele>750.409</ele><time>2025-09-28T16:54:40.934371014Z</time></trkpt><trkpt lat="40.883815" lon="-3.436646"><ele>753.749</ele><time>2025-09-28T16:55:20.934373689Z</time></trkpt><trkpt lat="40.883861" lon="-3.436405"><ele>754.167</ele><time>2025-09-28T16:56:00.934376234Z</time></trkpt><trkpt lat="40.883906" lon="-3.436261"><ele>754.816</ele><time>2025-09-28T16:56:40.934378688Z</time></trkpt><trkpt lat="40.883935" lon="-3.436183"><ele>755.056</ele><time>2025-09-28T16:57:20.934381203Z</time></trkpt><trkpt lat="40.883980" lon="-3.436092"><ele>755.276</ele><time>2025-09-28T16:58:00.934383918Z</time></trkpt><trkpt lat="40.883992" lon="-3.436036"><ele>754.979</ele><time>2025-09-28T16:58:40.934387896Z</time></trkpt><trkpt lat="40.884023" lon="-3.435951"><ele>754.896</ele><time>2025-09-28T16:59:20.934390510Z</time></trkpt><trkpt lat="40.884067" lon="-3.435915"><ele>755.251</ele><time>2025-09-28T17:00:00.934393075Z</time></trkpt><trkpt lat="40.884178" lon="-3.435759"><ele>755.811</ele><time>2025-09-28T17:00:40.934395991Z</time></trkpt><trkpt lat="40.884225" lon="-3.435658"><ele>756.526</ele><time>2025-09-28T17:01:20.934399107Z</time></trkpt><trkpt lat="40.884309" lon="-3.435543"><ele>758.047</ele><time>2025-09-28T17:02:00.934401782Z</time></trkpt><trkpt lat="40.884344" lon="-3.435452"><ele>758.111</ele><time>2025-09-28T17:02:40.934404376Z</time></trkpt><trkpt lat="40.884473" lon="-3.435282"><ele>759.909</ele><time>2025-09-28T17:03:20.934407031Z</time></trkpt><trkpt lat="40.884485" lon="-3.435151"><ele>758.324</ele><time>2025-09-28T17:04:00.934409556Z</time></trkpt><trkpt lat="40.884496" lon="-3.435090"><ele>757.882</ele><time>2025-09-28T17:04:40.934412251Z</time></trkpt><trkpt lat="40.884583" lon="-3.434994"><ele>758.991</ele><time>2025-09-28T17:05:20.934414876Z</time></trkpt><trkpt lat="40.884599" lon="-3.434856"><ele>757.661</ele><time>2025-09-28T17:06:00.934417421Z</time></trkpt><trkpt lat="40.884625" lon="-3.434579"><ele>755.281</ele><time>2025-09-28T17:06:40.934420006Z</time></trkpt><trkpt lat="40.884644" lon="-3.434406"><ele>754.044</ele><time>2025-09-28T17:07:20.934422641Z</time></trkpt><trkpt lat="40.884681" lon="-3.434135"><ele>752.341</ele><time>2025-09-28T17:08:00.934425235Z</time></trkpt><trkpt lat="40.884692" lon="-3.434001"><ele>751.116</ele><time>2025-09-28T17:08:40.934427830Z</time></trkpt><trkpt lat="40.884676" lon="-3.433866"><ele>750.036</ele><time>2025-09-28T17:09:20.934430595Z</time></trkpt><trkpt lat="40.884650" lon="-3.433788"><ele>750.051</ele><time>2025-09-28T17:10:00.934433240Z</time></trkpt><trkpt lat="40.884617" lon="-3.433669"><ele>750.001</ele><time>2025-09-28T17:10:40.934435875Z</time></trkpt><trkpt lat="40.884504" lon="-3.433509"><ele>750.011</ele><time>2025-09-28T17:11:20.934438510Z</time></trkpt><trkpt lat="40.884439" lon="-3.433385"><ele>750.109</ele><time>2025-09-28T17:12:00.934443279Z</time></trkpt><trkpt lat="40.884374" lon="-3.433282"><ele>751.877</ele><time>2025-09-28T17:12:40.934465080Z</time></trkpt><trkpt lat="40.884378" lon="-3.433203"><ele>753.125</ele><time>2025-09-28T17:13:20.934469468Z</time></trkpt><trkpt lat="40.884425" lon="-3.433112"><ele>754.254</ele><time>2025-09-28T17:14:00.934473526Z</time></trkpt><trkpt lat="40.884465" lon="-3.433034"><ele>755.494</ele><time>2025-09-28T17:14:40.934476060Z</time></trkpt><trkpt lat="40.884465" lon="-3.432862"><ele>758.694</ele><time>2025-09-28T17:15:20.934478665Z</time></trkpt><trkpt lat="40.884482" lon="-3.432732"><ele>762.097</ele><time>2025-09-28T17:16:00.934481270Z</time></trkpt><trkpt lat="40.884514" lon="-3.432592"><ele>766.984</ele><time>2025-09-28T17:16:40.934483805Z</time></trkpt><trkpt lat="40.884550" lon="-3.432526"><ele>769.259</ele><time>2025-09-28T17:17:20.934486390Z</time></trkpt><trkpt lat="40.884579" lon="-3.432464"><ele>770.869</ele><time>2025-09-28T17:18:00.934489025Z</time></trkpt><trkpt lat="40.884615" lon="-3.432335"><ele>773.872</ele><time>2025-09-28T17:18:40.934491660Z</time></trkpt><trkpt lat="40.884628" lon="-3.432295"><ele>774.913</ele><time>2025-09-28T17:19:20.934494345Z</time></trkpt><trkpt lat="40.884651" lon="-3.432226"><ele>776.914</ele><time>2025-09-28T17:20:00.934497010Z</time></trkpt><trkpt lat="40.884655" lon="-3.432150"><ele>778.709</ele><time>2025-09-28T17:20:40.934499895Z</time></trkpt><trkpt lat="40.884691" lon="-3.432047"><ele>781.839</ele><time>2025-09-28T17:21:20.934502440Z</time></trkpt><trkpt lat="40.884711" lon="-3.431900"><ele>785.777</ele><time>2025-09-28T17:22:00.934505085Z</time></trkpt><trkpt lat="40.884701" lon="-3.431785"><ele>787.856</ele><time>2025-09-28T17:22:40.934507599Z</time></trkpt><trkpt lat="40.884685" lon="-3.431720"><ele>788.776</ele><time>2025-09-28T17:23:20.934510134Z</time></trkpt><trkpt lat="40.884713" lon="-3.431645"><ele>790.996</ele><time>2025-09-28T17:24:00.934512689Z</time></trkpt><trkpt lat="40.884774" lon="-3.431587"><ele>792.199</ele><time>2025-09-28T17:24:40.934515264Z</time></trkpt><trkpt lat="40.884837" lon="-3.431509"><ele>794.076</ele><time>2025-09-28T17:25:20.934517738Z</time></trkpt><trkpt lat="40.884879" lon="-3.431424"><ele>796.371</ele><time>2025-09-28T17:26:00.934520363Z</time></trkpt><trkpt lat="40.884886" lon="-3.431269"><ele>798.961</ele><time>2025-09-28T17:26:40.934522968Z</time></trkpt><trkpt lat="40.884896" lon="-3.431178"><ele>800.662</ele><time>2025-09-28T17:27:20.934525563Z</time></trkpt><trkpt lat="40.884922" lon="-3.431140"><ele>802.083</ele><time>2025-09-28T17:28:00.934528128Z</time></trkpt><trkpt lat="40.885004" lon="-3.431038"><ele>806.411</ele><time>2025-09-28T17:28:40.934530693Z</time></trkpt><trkpt lat="40.885071" lon="-3.431017"><ele>807.709</ele><time>2025-09-28T17:29:20.934533267Z</time></trkpt><trkpt lat="40.885151" lon="-3.430944"><ele>811.198</ele><time>2025-09-28T17:30:00.934535872Z</time></trkpt><trkpt lat="40.885192" lon="-3.430838"><ele>815.486</ele><time>2025-09-28T17:30:40.934538407Z</time></trkpt><trkpt lat="40.885217" lon="-3.430680"><ele>822.635</ele><time>2025-09-28T17:31:20.934540922Z</time></trkpt><trkpt lat="40.885243" lon="-3.430593"><ele>827.265</ele><time>2025-09-28T17:32:00.934543447Z</time></trkpt><trkpt lat="40.885241" lon="-3.430440"><ele>832.185</ele><time>2025-09-28T17:32:40.934546462Z</time></trkpt><trkpt lat="40.885240" lon="-3.430325"><ele>835.548</ele><time>2025-09-28T17:33:20.934549007Z</time></trkpt><trkpt lat="40.885285" lon="-3.430157"><ele>840.735</ele><time>2025-09-28T17:34:00.934551482Z</time></trkpt><trkpt lat="40.885364" lon="-3.429962"><ele>845.640</ele><time>2025-09-28T17:34:40.934553866Z</time></trkpt><trkpt lat="40.885518" lon="-3.429773"><ele>852.060</ele><time>2025-09-28T17:35:20.934556631Z</time></trkpt><trkpt lat="40.885695" lon="-3.429559"><ele>856.321</ele><time>2025-09-28T17:36:00.934559216Z</time></trkpt><trkpt lat="40.885841" lon="-3.429354"><ele>860.241</ele><time>2025-09-28T17:36:40.934561671Z</time></trkpt><trkpt lat="40.885923" lon="-3.429132"><ele>861.205</ele><time>2025-09-28T17:37:20.934565548Z</time></trkpt><trkpt lat="40.885983" lon="-3.428846"><ele>864.109</ele><time>2025-09-28T17:38:00.934567982Z</time></trkpt><trkpt lat="40.886086" lon="-3.428620"><ele>869.274</ele><time>2025-09-28T17:38:40.934570427Z</time></trkpt><trkpt lat="40.886141" lon="-3.428568"><ele>869.782</ele><time>2025-09-28T17:39:20.934572862Z</time></trkpt><trkpt lat="40.886295" lon="-3.428304"><ele>869.991</ele><time>2025-09-28T17:40:00.934575306Z</time></trkpt><trkpt lat="40.886372" lon="-3.428191"><ele>869.971</ele><time>2025-09-28T17:40:40.934577691Z</time></trkpt><trkpt lat="40.886461" lon="-3.428099"><ele>870.151</ele><time>2025-09-28T17:41:20.934580105Z</time></trkpt><trkpt lat="40.886578" lon="-3.427999"><ele>871.074</ele><time>2025-09-28T17:42:00.934582530Z</time></trkpt><trkpt lat="40.886683" lon="-3.427840"><ele>873.261</ele><time>2025-09-28T17:42:40.934584984Z</time></trkpt><trkpt lat="40.886949" lon="-3.427490"><ele>879.936</ele><time>2025-09-28T17:43:20.934587369Z</time></trkpt><trkpt lat="40.887105" lon="-3.427247"><ele>879.796</ele><time>2025-09-28T17:44:00.934589803Z</time></trkpt><trkpt lat="40.887332" lon="-3.426950"><ele>880.086</ele><time>2025-09-28T17:44:40.934592348Z</time></trkpt><trkpt lat="40.887529" lon="-3.426658"><ele>880.260</ele><time>2025-09-28T17:45:20.934594773Z</time></trkpt><trkpt lat="40.887638" lon="-3.426452"><ele>881.826</ele><time>2025-09-28T17:46:00.934597207Z</time></trkpt><trkpt lat="40.887699" lon="-3.426261"><ele>883.509</ele><time>2025-09-28T17:46:40.934599632Z</time></trkpt><trkpt lat="40.887707" lon="-3.426039"><ele>885.550</ele><time>2025-09-28T17:47:20.934602166Z</time></trkpt><trkpt lat="40.887680" lon="-3.425894"><ele>886.758</ele><time>2025-09-28T17:48:00.934604581Z</time></trkpt><trkpt lat="40.887665" lon="-3.425769"><ele>888.667</ele><time>2025-09-28T17:48:40.934606965Z</time></trkpt><trkpt lat="40.887691" lon="-3.425681"><ele>891.547</ele><time>2025-09-28T17:49:20.934609430Z</time></trkpt><trkpt lat="40.887671" lon="-3.425566"><ele>893.877</ele><time>2025-09-28T17:50:00.934611935Z</time></trkpt><trkpt lat="40.887661" lon="-3.425437"><ele>896.620</ele><time>2025-09-28T17:50:40.934614369Z</time></trkpt><trkpt lat="40.887660" lon="-3.425369"><ele>898.267</ele><time>2025-09-28T17:51:20.934616854Z</time></trkpt><trkpt lat="40.887632" lon="-3.425325"><ele>898.862</ele><time>2025-09-28T17:52:00.934619278Z</time></trkpt><trkpt lat="40.887626" lon="-3.425240"><ele>900.662</ele><time>2025-09-28T17:52:40.934621683Z</time></trkpt><trkpt lat="40.887634" lon="-3.425194"><ele>901.653</ele><time>2025-09-28T17:53:20.934624178Z</time></trkpt><trkpt lat="40.887610" lon="-3.425140"><ele>902.404</ele><time>2025-09-28T17:54:00.934626682Z</time></trkpt><trkpt lat="40.887633" lon="-3.425065"><ele>904.114</ele><time>2025-09-28T17:54:40.934629117Z</time></trkpt><trkpt lat="40.887613" lon="-3.425020"><ele>904.809</ele><time>2025-09-28T17:55:20.934631591Z</time></trkpt><trkpt lat="40.887598" lon="-3.424947"><ele>906.247</ele><time>2025-09-28T17:56:00.934634036Z</time></trkpt><trkpt lat="40.887592" lon="-3.424892"><ele>907.325</ele><time>2025-09-28T17:56:40.934636430Z</time></trkpt><trkpt lat="40.887566" lon="-3.424788"><ele>909.374</ele><time>2025-09-28T17:57:20.934638875Z</time></trkpt><trkpt lat="40.887540" lon="-3.424663"><ele>911.654</ele><time>2025-09-28T17:58:00.934641360Z</time></trkpt><trkpt lat="40.887528" lon="-3.424534"><ele>913.864</ele><time>2025-09-28T17:58:40.934643804Z</time></trkpt><trkpt lat="40.887510" lon="-3.424439"><ele>915.357</ele><time>2025-09-28T17:59:20.934646259Z</time></trkpt><trkpt lat="40.887554" lon="-3.424288"><ele>919.184</ele><time>2025-09-28T18:00:00.934648733Z</time></trkpt><trkpt lat="40.887600" lon="-3.424080"><ele>924.129</ele><time>2025-09-28T18:00:40.934651408Z</time></trkpt><trkpt lat="40.887628" lon="-3.423880"><ele>927.829</ele><time>2025-09-28T18:01:20.934653923Z</time></trkpt><trkpt lat="40.887684" lon="-3.423768"><ele>930.854</ele><time>2025-09-28T18:02:00.934656418Z</time></trkpt><trkpt lat="40.887766" lon="-3.423649"><ele>934.356</ele><time>2025-09-28T18:02:40.934658822Z</time></trkpt><trkpt lat="40.887826" lon="-3.423556"><ele>936.311</ele><time>2025-09-28T18:03:20.934669142Z</time></trkpt><trkpt lat="40.887881" lon="-3.423466"><ele>938.209</ele><time>2025-09-28T18:04:00.934673530Z</time></trkpt><trkpt lat="40.887911" lon="-3.423433"><ele>939.367</ele><time>2025-09-28T18:04:40.934677427Z</time></trkpt><trkpt lat="40.888098" lon="-3.423390"><ele>945.415</ele><time>2025-09-28T18:05:20.934681875Z</time></trkpt><trkpt lat="40.888174" lon="-3.423296"><ele>947.734</ele><time>2025-09-28T18:06:00.934685562Z</time></trkpt><trkpt lat="40.888250" lon="-3.423160"><ele>949.814</ele><time>2025-09-28T18:06:40.934689590Z</time></trkpt><trkpt lat="40.888301" lon="-3.423086"><ele>952.254</ele><time>2025-09-28T18:07:20.934692225Z</time></trkpt><trkpt lat="40.888348" lon="-3.423037"><ele>954.387</ele><time>2025-09-28T18:08:00.934694669Z</time></trkpt><trkpt lat="40.888358" lon="-3.422976"><ele>954.614</ele><time>2025-09-28T18:08:40.934697565Z</time></trkpt><trkpt lat="40.888396" lon="-3.422856"><ele>955.799</ele><time>2025-09-28T18:09:20.934700500Z</time></trkpt><trkpt lat="40.888430" lon="-3.422786"><ele>956.899</ele><time>2025-09-28T18:10:00.934703015Z</time></trkpt><trkpt lat="40.888419" lon="-3.422709"><ele>956.989</ele><time>2025-09-28T18:10:40.934705520Z</time></trkpt><trkpt lat="40.888402" lon="-3.422583"><ele>957.206</ele><time>2025-09-28T18:11:20.934708024Z</time></trkpt><trkpt lat="40.888400" lon="-3.422479"><ele>957.926</ele><time>2025-09-28T18:12:00.934710489Z</time></trkpt><trkpt lat="40.888400" lon="-3.422339"><ele>959.309</ele><time>2025-09-28T18:12:40.934712904Z</time></trkpt><trkpt lat="40.888384" lon="-3.422181"><ele>960.530</ele><time>2025-09-28T18:13:20.934716380Z</time></trkpt><trkpt lat="40.888375" lon="-3.422046"><ele>961.768</ele><time>2025-09-28T18:14:00.934718835Z</time></trkpt><trkpt lat="40.888380" lon="-3.421991"><ele>962.437</ele><time>2025-09-28T18:14:40.934721249Z</time></trkpt><trkpt lat="40.888375" lon="-3.421921"><ele>963.197</ele><time>2025-09-28T18:15:20.934723674Z</time></trkpt><trkpt lat="40.888308" lon="-3.421817"><ele>962.097</ele><time>2025-09-28T18:16:00.934726158Z</time></trkpt><trkpt lat="40.888377" lon="-3.421915"><ele>963.240</ele><time>2025-09-28T18:16:40.934728583Z</time></trkpt><trkpt lat="40.888377" lon="-3.421985"><ele>962.447</ele><time>2025-09-28T18:17:20.934731007Z</time></trkpt><trkpt lat="40.888387" lon="-3.422086"><ele>961.582</ele><time>2025-09-28T18:18:00.934733502Z</time></trkpt><trkpt lat="40.888405" lon="-3.422353"><ele>959.362</ele><time>2025-09-28T18:18:40.934735887Z</time></trkpt><trkpt lat="40.888399" lon="-3.422584"><ele>957.183</ele><time>2025-09-28T18:19:20.934738431Z</time></trkpt><trkpt lat="40.888431" lon="-3.422782"><ele>956.825</ele><time>2025-09-28T18:20:00.934740896Z</time></trkpt><trkpt lat="40.888367" lon="-3.422933"><ele>954.817</ele><time>2025-09-28T18:20:40.934743320Z</time></trkpt><trkpt lat="40.888339" lon="-3.423030"><ele>954.109</ele><time>2025-09-28T18:21:20.934745855Z</time></trkpt><trkpt lat="40.888169" lon="-3.423289"><ele>947.570</ele><time>2025-09-28T18:22:00.934748390Z</time></trkpt><trkpt lat="40.888099" lon="-3.423385"><ele>945.518</ele><time>2025-09-28T18:22:40.934750804Z</time></trkpt><trkpt lat="40.887908" lon="-3.423430"><ele>939.297</ele><time>2025-09-28T18:23:20.934753299Z</time></trkpt><trkpt lat="40.887668" lon="-3.423792"><ele>930.047</ele><time>2025-09-28T18:24:00.934755784Z</time></trkpt><trkpt lat="40.887622" lon="-3.423882"><ele>927.667</ele><time>2025-09-28T18:24:40.934758188Z</time></trkpt><trkpt lat="40.887601" lon="-3.424077"><ele>924.210</ele><time>2025-09-28T18:25:20.934760603Z</time></trkpt><trkpt lat="40.887553" lon="-3.424286"><ele>919.177</ele><time>2025-09-28T18:26:00.934763027Z</time></trkpt><trkpt lat="40.887513" lon="-3.424439"><ele>915.342</ele><time>2025-09-28T18:26:40.934765422Z</time></trkpt><trkpt lat="40.887544" lon="-3.424656"><ele>911.752</ele><time>2025-09-28T18:27:20.934767806Z</time></trkpt><trkpt lat="40.887611" lon="-3.425004"><ele>905.112</ele><time>2025-09-28T18:28:00.934770321Z</time></trkpt><trkpt lat="40.887636" lon="-3.425062"><ele>904.232</ele><time>2025-09-28T18:28:40.934772735Z</time></trkpt><trkpt lat="40.887620" lon="-3.425309"><ele>899.005</ele><time>2025-09-28T18:29:20.934775180Z</time></trkpt><trkpt lat="40.887666" lon="-3.425438"><ele>896.709</ele><time>2025-09-28T18:30:00.934777685Z</time></trkpt><trkpt lat="40.887683" lon="-3.425683"><ele>891.273</ele><time>2025-09-28T18:30:40.934780089Z</time></trkpt><trkpt lat="40.887662" lon="-3.425793"><ele>887.941</ele><time>2025-09-28T18:31:20.934782484Z</time></trkpt><trkpt lat="40.887705" lon="-3.426092"><ele>884.760</ele><time>2025-09-28T18:32:00.934784878Z</time></trkpt><trkpt lat="40.887692" lon="-3.426311"><ele>883.280</ele><time>2025-09-28T18:32:40.934787393Z</time></trkpt><trkpt lat="40.887604" lon="-3.426493"><ele>881.220</ele><time>2025-09-28T18:33:20.934789847Z</time></trkpt><trkpt lat="40.887406" lon="-3.426837"><ele>880.023</ele><time>2025-09-28T18:34:00.934792362Z</time></trkpt><trkpt lat="40.886937" lon="-3.427496"><ele>879.930</ele><time>2025-09-28T18:34:40.934794817Z</time></trkpt><trkpt lat="40.886684" lon="-3.427839"><ele>873.395</ele><time>2025-09-28T18:35:20.934797271Z</time></trkpt><trkpt lat="40.886566" lon="-3.427999"><ele>871.035</ele><time>2025-09-28T18:36:00.934799746Z</time></trkpt><trkpt lat="40.886450" lon="-3.428108"><ele>870.144</ele><time>2025-09-28T18:36:40.934802221Z</time></trkpt><trkpt lat="40.886154" lon="-3.428551"><ele>869.605</ele><time>2025-09-28T18:37:20.934804665Z</time></trkpt><trkpt lat="40.886010" lon="-3.428773"><ele>865.415</ele><time>2025-09-28T18:38:00.934807210Z</time></trkpt><trkpt lat="40.885924" lon="-3.429121"><ele>861.309</ele><time>2025-09-28T18:38:40.934809624Z</time></trkpt><trkpt lat="40.885839" lon="-3.429339"><ele>860.386</ele><time>2025-09-28T18:39:20.934812370Z</time></trkpt><trkpt lat="40.885545" lon="-3.429776"><ele>852.454</ele><time>2025-09-28T18:40:00.934814944Z</time></trkpt><trkpt lat="40.885371" lon="-3.429954"><ele>845.823</ele><time>2025-09-28T18:40:40.934817299Z</time></trkpt><trkpt lat="40.885258" lon="-3.430254"><ele>837.913</ele><time>2025-09-28T18:41:20.934820545Z</time></trkpt><trkpt lat="40.885241" lon="-3.430569"><ele>828.143</ele><time>2025-09-28T18:42:00.934823010Z</time></trkpt><trkpt lat="40.885162" lon="-3.430914"><ele>812.276</ele><time>2025-09-28T18:42:40.934826165Z</time></trkpt><trkpt lat="40.885059" lon="-3.431010"><ele>807.723</ele><time>2025-09-28T18:43:20.934829952Z</time></trkpt><trkpt lat="40.884918" lon="-3.431138"><ele>801.928</ele><time>2025-09-28T18:44:00.934833940Z</time></trkpt><trkpt lat="40.884882" lon="-3.431265"><ele>798.998</ele><time>2025-09-28T18:44:40.934837787Z</time></trkpt><trkpt lat="40.884879" lon="-3.431427"><ele>796.242</ele><time>2025-09-28T18:45:20.934841905Z</time></trkpt><trkpt lat="40.884701" lon="-3.431665"><ele>790.322</ele><time>2025-09-28T18:46:00.934845862Z</time></trkpt><trkpt lat="40.884712" lon="-3.431834"><ele>787.114</ele><time>2025-09-28T18:46:40.934849178Z</time></trkpt><trkpt lat="40.884700" lon="-3.432030"><ele>782.409</ele><time>2025-09-28T18:47:20.934851673Z</time></trkpt><trkpt lat="40.884488" lon="-3.432721"><ele>762.466</ele><time>2025-09-28T18:48:00.934854118Z</time></trkpt><trkpt lat="40.884452" lon="-3.433030"><ele>755.574</ele><time>2025-09-28T18:48:40.934857093Z</time></trkpt><trkpt lat="40.884366" lon="-3.433243"><ele>752.693</ele><time>2025-09-28T18:49:20.934859959Z</time></trkpt><trkpt lat="40.884409" lon="-3.433357"><ele>750.593</ele><time>2025-09-28T18:50:00.934862383Z</time></trkpt><trkpt lat="40.884487" lon="-3.433490"><ele>750.093</ele><time>2025-09-28T18:50:40.934864848Z</time></trkpt><trkpt lat="40.884629" lon="-3.433644"><ele>750.046</ele><time>2025-09-28T18:51:20.934867383Z</time></trkpt><trkpt lat="40.884692" lon="-3.433953"><ele>750.693</ele><time>2025-09-28T18:52:00.934869857Z</time></trkpt><trkpt lat="40.884669" lon="-3.434165"><ele>752.458</ele><time>2025-09-28T18:52:40.934872262Z</time></trkpt><trkpt lat="40.884600" lon="-3.434980"><ele>759.268</ele><time>2025-09-28T18:53:20.934874696Z</time></trkpt><trkpt lat="40.884486" lon="-3.435265"><ele>760.047</ele><time>2025-09-28T18:54:00.934884695Z</time></trkpt><trkpt lat="40.884313" lon="-3.435527"><ele>758.029</ele><time>2025-09-28T18:54:40.934887450Z</time></trkpt><trkpt lat="40.884177" lon="-3.435759"><ele>755.821</ele><time>2025-09-28T18:55:20.934889955Z</time></trkpt><trkpt lat="40.884035" lon="-3.435924"><ele>754.809</ele><time>2025-09-28T18:56:00.934892469Z</time></trkpt><trkpt lat="40.883882" lon="-3.436318"><ele>754.596</ele><time>2025-09-28T18:56:40.934894834Z</time></trkpt><trkpt lat="40.883807" lon="-3.436655"><ele>753.424</ele><time>2025-09-28T18:57:20.934897258Z</time></trkpt><trkpt lat="40.883769" lon="-3.436725"><ele>751.993</ele><time>2025-09-28T18:58:00.934899673Z</time></trkpt><trkpt lat="40.883647" lon="-3.437080"><ele>748.143</ele><time>2025-09-28T18:58:40.934902107Z</time></trkpt><trkpt lat="40.883410" lon="-3.437444"><ele>743.183</ele><time>2025-09-28T18:59:20.934904552Z</time></trkpt><trkpt lat="40.883324" lon="-3.437538"><ele>741.226</ele><time>2025-09-28T19:00:00.934907027Z</time></trkpt><trkpt lat="40.883180" lon="-3.437828"><ele>739.963</ele><time>2025-09-28T19:00:40.934909461Z</time></trkpt><trkpt lat="40.882902" lon="-3.438273"><ele>734.358</ele><time>2025-09-28T19:01:20.934911826Z</time></trkpt><trkpt lat="40.882781" lon="-3.438551"><ele>730.968</ele><time>2025-09-28T19:02:00.934914350Z</time></trkpt><trkpt lat="40.882695" lon="-3.439057"><ele>729.835</ele><time>2025-09-28T19:02:40.934917616Z</time></trkpt><trkpt lat="40.882505" lon="-3.439415"><ele>726.186</ele><time>2025-09-28T19:03:20.934920131Z</time></trkpt><trkpt lat="40.882434" lon="-3.439567"><ele>723.914</ele><time>2025-09-28T19:04:00.934922536Z</time></trkpt><trkpt lat="40.882360" lon="-3.439679"><ele>721.109</ele><time>2025-09-28T19:04:40.934924990Z</time></trkpt><trkpt lat="40.882231" lon="-3.439977"><ele>713.665</ele><time>2025-09-28T19:05:20.934927455Z</time></trkpt><trkpt lat="40.882180" lon="-3.440163"><ele>711.443</ele><time>2025-09-28T19:06:00.934929839Z</time></trkpt><trkpt lat="40.882550" lon="-3.440746"><ele>709.122</ele><time>2025-09-28T19:06:40.934932244Z</time></trkpt><trkpt lat="40.882632" lon="-3.440940"><ele>707.852</ele><time>2025-09-28T19:07:20.934934618Z</time></trkpt><trkpt lat="40.882660" lon="-3.441059"><ele>706.662</ele><time>2025-09-28T19:08:00.934937063Z</time></trkpt><trkpt lat="40.882757" lon="-3.441163"><ele>706.555</ele><time>2025-09-28T19:08:40.934939407Z</time></trkpt><trkpt lat="40.882793" lon="-3.441229"><ele>705.752</ele><time>2025-09-28T19:09:20.934941892Z</time></trkpt><trkpt lat="40.882829" lon="-3.441271"><ele>705.437</ele><time>2025-09-28T19:10:00.934944316Z</time></trkpt></trkseg></trk></gpx>